Aérodrome :
LOGIN :

S'inscrire | Disclaimer

   EN    FR    IT 

 










Légende :    VFR   VFR Marginal   IFR   IFR Intensif   IFR Très Intensif
Visi : 
Plafond : 
>= 8 km
>= 3000ft
5 à 8 km
1000 à 3000 ft
1500m à 5 km
500 à 1000 ft
800 à 1500m
200 à 500 ft
< 800m
< 200 ft
Symboles :   Orages  Brouillard  Fortes neiges  Fortes précipitations  Vent > 20 kt
SIGMETs :   Divers  Orages  Givrage  Turbulence  Onde Orograph.  Cendres Volcan.






- Altitude de l'aérodrome : 3 ft
- Code IATA : DHR


EHKD - Den Helder De Kooy

DERNIER METAR :
  • 090948Z AUTO 17011KT 9999 FEW020 SCT026 BKN046 04/03 Q1000 BLU TEMPO 4500 SHRA FEW007 SCT015 SCT018CB BKN020

METARs EXPIRÉS :
  • 090936Z AUTO 17012KT 9999 FEW008 SCT017 BKN023 04/03 Q1000 WHT TEMPO 4500 SHRA FEW007 SCT015 SCT018CB BKN020
  • 090925Z AUTO 17011KT 9999 FEW015CB BKN032 OVC037 04/03 Q1000 BLU TEMPO 4500 SHRA FEW007 SCT015 SCT018CB BKN020
  • 090918Z AUTO 17011KT 9999 FEW021 SCT025 BKN028 04/03 Q1000 BLU TEMPO 4500 SHRA FEW007 SCT015 SCT018CB BKN020
  • 090904Z AUTO 18011KT 6000 -RA BKN015 BKN018 OVC023 04/03 Q1000 WHT TEMPO 4500 SHRA FEW007 SCT015 SCT018CB BKN020
  • 090855Z AUTO 17012KT 140V200 9999 FEW015 SCT019 BKN022 04/03 Q1000 WHT TEMPO 4500 SHRA FEW007 SCT015 SCT018CB BKN020
  • 090838Z AUTO 17012KT 140V200 9999 DZ BKN018 OVC022 04/03 Q1000 WHT TEMPO 4500 SHRA FEW007 SCT015 SCT018CB BKN020
  • 090825Z AUTO 18014KT 9999 BKN021 OVC025 04/03 Q1000 WHT TEMPO 4500 SHRA FEW007 SCT015 SCT018CB BKN020
  • 090757Z AUTO 18012KT 9999 FEW015CB BKN024 BKN034 BKN043 03/02 Q1000 WHT TEMPO 4500 SHRA FEW007 SCT015 SCT018CB BKN020
  • 090755Z AUTO 18012KT 9999 FEW015CB SCT024 BKN032 03/02 Q1000 REDZ WHT TEMPO 4500 SHRA FEW007 SCT015 SCT018CB BKN020
  • 090725Z AUTO 17012KT 9999 -RA FEW015CB SCT017 BKN020 OVC026 03/02 Q0999 RERA REDZ WHT TEMPO 4500 SHRA FEW007 SCT015 SCT018CB BKN020
  • 090707Z AUTO 17012KT 5000 -SHRA FEW015CB BKN023 BKN028 03/02 Q0999 WHT TEMPO 4500 SHRA FEW007 SCT015 SCT018CB BKN020
  • 090655Z AUTO 18013KT 9999 DZ FEW015CB SCT024 BKN032 03/02 Q0999 WHT TEMPO 4500 SHRA FEW007 SCT015 SCT018CB BKN020

TAF TAF EHKD
Valide du 09 à 10h jusqu'au 09 à 22h UTC


090930Z 0910/0922 18012KT 9999 SCT017 BKN025
TEMPO 0910/0915 4500 -SHRA -RA SCT007 BKN010 OVC015 SCT018CB
TEMPO 0915/0919 SCT012 SCT018CB BKN025
BECMG 0918/0920 24005KT FEW015 BKN025



MET'MAP, la Météo Aéronautique d'un coup d'oeil ! - Copyright ORBIFLY Décembre 2007 - Disclaimer

ORBIFLY MET'MAP TEAM :

Programmation & Développement : Alexandra Zaïnal
Sur une idée originale de : Baudouin d'Aumeries
Assistance à la programmation : Marc-Olivier Méhu
Soutien technique & logistique : Manuel Goepfert

Contact : metmap@orbifly.com




SOURCES & CREDITS :

   NOAA